sensor_id;sensor_type;location;lat;lon;timestamp;pressure;altitude;pressure_sealevel;temperature;humidity
75668;BME280;64266;48.798;44.756;2023-03-19T00:01:46;101856.94;;;6.57;68.78
75668;BME280;64266;48.798;44.756;2023-03-19T00:06:49;101854.91;;;6.43;69.01
75668;BME280;64266;48.798;44.756;2023-03-19T00:11:52;101850.47;;;6.35;69.31
75668;BME280;64266;48.798;44.756;2023-03-19T00:16:54;101851.47;;;6.34;69.21
75668;BME280;64266;48.798;44.756;2023-03-19T00:21:57;101844.88;;;6.38;68.84
75668;BME280;64266;48.798;44.756;2023-03-19T00:26:59;101851.81;;;6.47;69.04
75668;BME280;64266;48.798;44.756;2023-03-19T00:32:03;101838.13;;;6.28;69.41
75668;BME280;64266;48.798;44.756;2023-03-19T00:37:07;101839.28;;;6.33;69.56
75668;BME280;64266;48.798;44.756;2023-03-19T00:42:10;101842.41;;;6.29;69.45
75668;BME280;64266;48.798;44.756;2023-03-19T00:47:13;101863.47;;;6.37;69.80
75668;BME280;64266;48.798;44.756;2023-03-19T00:52:18;101858.06;;;6.30;70.24
75668;BME280;64266;48.798;44.756;2023-03-19T00:57:21;101849.34;;;6.30;69.62
75668;BME280;64266;48.798;44.756;2023-03-19T01:02:25;101864.78;;;6.25;69.85
75668;BME280;64266;48.798;44.756;2023-03-19T01:07:28;101846.97;;;6.11;69.89
75668;BME280;64266;48.798;44.756;2023-03-19T01:12:30;101836.44;;;6.03;69.31
75668;BME280;64266;48.798;44.756;2023-03-19T01:17:32;101836.75;;;5.99;69.53
75668;BME280;64266;48.798;44.756;2023-03-19T01:22:36;101847.28;;;5.99;69.94
75668;BME280;64266;48.798;44.756;2023-03-19T01:27:39;101843.97;;;5.97;69.39
75668;BME280;64266;48.798;44.756;2023-03-19T01:32:42;101860.91;;;5.87;70.43
75668;BME280;64266;48.798;44.756;2023-03-19T01:38:06;101857.22;;;5.72;69.87
75668;BME280;64266;48.798;44.756;2023-03-19T01:43:19;101869.25;;;5.82;70.30
75668;BME280;64266;48.798;44.756;2023-03-19T01:53:45;101862.28;;;5.65;70.21
75668;BME280;64266;48.798;44.756;2023-03-19T02:04:37;101891.22;;;5.65;69.54
75668;BME280;64266;48.798;44.756;2023-03-19T02:09:40;101872.25;;;5.54;70.16
75668;BME280;64266;48.798;44.756;2023-03-19T02:14:43;101890.19;;;5.58;69.84
75668;BME280;64266;48.798;44.756;2023-03-19T02:19:52;101888.53;;;5.57;69.55
75668;BME280;64266;48.798;44.756;2023-03-19T02:30:28;101891.75;;;5.43;68.90
75668;BME280;64266;48.798;44.756;2023-03-19T02:35:37;101893.53;;;5.34;69.22
75668;BME280;64266;48.798;44.756;2023-03-19T02:40:50;101864.75;;;5.07;69.70
75668;BME280;64266;48.798;44.756;2023-03-19T02:45:56;101905.41;;;5.21;69.59
75668;BME280;64266;48.798;44.756;2023-03-19T02:51:01;101910.00;;;5.19;69.69
75668;BME280;64266;48.798;44.756;2023-03-19T02:56:03;101917.50;;;5.14;69.16
75668;BME280;64266;48.798;44.756;2023-03-19T03:01:07;101916.84;;;5.12;69.52
75668;BME280;64266;48.798;44.756;2023-03-19T03:06:09;101929.09;;;5.21;68.82
75668;BME280;64266;48.798;44.756;2023-03-19T03:11:13;101922.50;;;5.17;68.45
75668;BME280;64266;48.798;44.756;2023-03-19T03:16:16;101930.84;;;5.12;68.23
75668;BME280;64266;48.798;44.756;2023-03-19T03:21:18;101940.50;;;5.12;68.77
75668;BME280;64266;48.798;44.756;2023-03-19T03:26:22;101933.91;;;5.08;68.43
75668;BME280;64266;48.798;44.756;2023-03-19T03:31:25;101957.03;;;5.22;68.23
75668;BME280;64266;48.798;44.756;2023-03-19T03:36:29;101959.31;;;5.17;67.98
75668;BME280;64266;48.798;44.756;2023-03-19T03:41:31;101952.75;;;5.21;67.67
75668;BME280;64266;48.798;44.756;2023-03-19T03:46:36;101966.63;;;5.31;68.82
75668;BME280;64266;48.798;44.756;2023-03-19T03:51:40;101942.41;;;5.19;67.16
75668;BME280;64266;48.798;44.756;2023-03-19T03:56:44;101952.97;;;5.27;67.33
75668;BME280;64266;48.798;44.756;2023-03-19T04:01:47;101969.47;;;5.37;67.29
75668;BME280;64266;48.798;44.756;2023-03-19T04:06:51;101946.66;;;5.38;67.25
75668;BME280;64266;48.798;44.756;2023-03-19T04:12:08;101971.78;;;5.66;67.07
75668;BME280;64266;48.798;44.756;2023-03-19T04:17:13;101970.91;;;5.83;66.76
75668;BME280;64266;48.798;44.756;2023-03-19T04:22:16;101981.72;;;5.98;65.29
75668;BME280;64266;48.798;44.756;2023-03-19T04:27:19;101988.53;;;6.09;65.49
75668;BME280;64266;48.798;44.756;2023-03-19T04:32:23;101969.69;;;5.95;65.22
75668;BME280;64266;48.798;44.756;2023-03-19T04:37:26;101995.81;;;6.23;64.81
75668;BME280;64266;48.798;44.756;2023-03-19T04:42:29;101980.69;;;7.07;63.26
75668;BME280;64266;48.798;44.756;2023-03-19T04:47:56;101964.09;;;8.33;59.77
75668;BME280;64266;48.798;44.756;2023-03-19T04:53:01;101978.88;;;9.41;57.01
75668;BME280;64266;48.798;44.756;2023-03-19T04:58:04;101947.38;;;10.04;54.90
75668;BME280;64266;48.798;44.756;2023-03-19T05:03:09;101972.59;;;11.01;51.63
75668;BME280;64266;48.798;44.756;2023-03-19T05:08:13;101990.75;;;11.74;50.65
75668;BME280;64266;48.798;44.756;2023-03-19T05:13:17;101973.47;;;12.32;48.33
75668;BME280;64266;48.798;44.756;2023-03-19T05:18:25;101985.94;;;13.05;48.01
75668;BME280;64266;48.798;44.756;2023-03-19T05:23:28;101962.72;;;13.85;45.24
75668;BME280;64266;48.798;44.756;2023-03-19T05:28:38;101967.31;;;14.29;44.33
75668;BME280;64266;48.798;44.756;2023-03-19T05:33:41;101977.25;;;14.91;44.16
75668;BME280;64266;48.798;44.756;2023-03-19T05:38:45;101997.19;;;15.19;42.28
75668;BME280;64266;48.798;44.756;2023-03-19T05:43:57;101981.66;;;15.59;42.38
75668;BME280;64266;48.798;44.756;2023-03-19T05:49:24;101992.84;;;16.29;39.80
75668;BME280;64266;48.798;44.756;2023-03-19T05:54:28;101990.22;;;16.59;39.12
75668;BME280;64266;48.798;44.756;2023-03-19T05:59:45;101988.22;;;16.54;38.94
75668;BME280;64266;48.798;44.756;2023-03-19T06:05:11;101977.09;;;16.69;38.96
75668;BME280;64266;48.798;44.756;2023-03-19T06:10:15;101986.16;;;16.98;38.92
75668;BME280;64266;48.798;44.756;2023-03-19T06:15:22;101976.53;;;17.31;37.51
75668;BME280;64266;48.798;44.756;2023-03-19T06:20:39;101972.59;;;17.57;37.90
75668;BME280;64266;48.798;44.756;2023-03-19T06:25:42;101967.22;;;17.46;37.60
75668;BME280;64266;48.798;44.756;2023-03-19T06:30:47;101978.69;;;17.64;37.87
75668;BME280;64266;48.798;44.756;2023-03-19T06:36:10;101975.53;;;18.19;35.91
75668;BME280;64266;48.798;44.756;2023-03-19T06:41:13;101965.28;;;18.56;35.25
75668;BME280;64266;48.798;44.756;2023-03-19T06:46:17;101959.06;;;18.67;35.75
75668;BME280;64266;48.798;44.756;2023-03-19T06:51:20;101976.84;;;18.56;35.87
75668;BME280;64266;48.798;44.756;2023-03-19T06:56:24;101968.66;;;18.23;36.50
75668;BME280;64266;48.798;44.756;2023-03-19T07:01:27;101962.81;;;18.26;36.72
75668;BME280;64266;48.798;44.756;2023-03-19T07:06:30;101948.75;;;18.35;36.78
75668;BME280;64266;48.798;44.756;2023-03-19T07:11:33;101956.44;;;18.04;37.45
75668;BME280;64266;48.798;44.756;2023-03-19T07:16:36;101952.50;;;17.95;37.52
75668;BME280;64266;48.798;44.756;2023-03-19T07:21:40;101954.78;;;18.14;38.00
75668;BME280;64266;48.798;44.756;2023-03-19T07:26:43;101939.91;;;17.72;37.81
75668;BME280;64266;48.798;44.756;2023-03-19T07:31:46;101938.78;;;17.68;38.18
75668;BME280;64266;48.798;44.756;2023-03-19T07:36:50;101953.81;;;17.34;37.85
75668;BME280;64266;48.798;44.756;2023-03-19T07:41:54;101939.13;;;16.72;39.67
75668;BME280;64266;48.798;44.756;2023-03-19T07:46:58;101948.56;;;16.45;40.86
75668;BME280;64266;48.798;44.756;2023-03-19T07:52:00;101945.22;;;16.31;41.39
75668;BME280;64266;48.798;44.756;2023-03-19T07:57:03;101950.31;;;16.21;41.81
75668;BME280;64266;48.798;44.756;2023-03-19T08:02:11;101930.13;;;15.89;42.25
75668;BME280;64266;48.798;44.756;2023-03-19T08:07:14;101934.59;;;15.77;42.93
75668;BME280;64266;48.798;44.756;2023-03-19T08:12:17;101937.56;;;15.68;43.24
75668;BME280;64266;48.798;44.756;2023-03-19T08:17:19;101937.56;;;15.68;43.23
75668;BME280;64266;48.798;44.756;2023-03-19T08:22:23;101924.97;;;15.51;43.09
75668;BME280;64266;48.798;44.756;2023-03-19T08:27:25;101923.50;;;15.55;43.61
75668;BME280;64266;48.798;44.756;2023-03-19T08:32:29;101917.19;;;15.86;43.10
75668;BME280;64266;48.798;44.756;2023-03-19T08:37:32;101928.66;;;15.93;42.79
75668;BME280;64266;48.798;44.756;2023-03-19T08:42:35;101901.59;;;15.83;41.55
75668;BME280;64266;48.798;44.756;2023-03-19T08:47:46;101910.56;;;16.06;41.49
75668;BME280;64266;48.798;44.756;2023-03-19T08:52:49;101912.53;;;16.29;41.20
75668;BME280;64266;48.798;44.756;2023-03-19T08:57:52;101875.75;;;16.06;40.92
75668;BME280;64266;48.798;44.756;2023-03-19T09:02:56;101915.03;;;16.42;41.16
75668;BME280;64266;48.798;44.756;2023-03-19T09:08:00;101910.16;;;16.51;39.83
75668;BME280;64266;48.798;44.756;2023-03-19T09:13:03;101887.16;;;16.61;39.92
75668;BME280;64266;48.798;44.756;2023-03-19T09:18:06;101890.81;;;16.78;39.88
75668;BME280;64266;48.798;44.756;2023-03-19T09:23:09;101815.63;;;16.50;40.73
75668;BME280;64266;48.798;44.756;2023-03-19T09:28:12;101852.63;;;16.95;40.41
75668;BME280;64266;48.798;44.756;2023-03-19T09:33:17;101855.06;;;17.08;39.73
75668;BME280;64266;48.798;44.756;2023-03-19T09:38:21;101831.88;;;17.25;38.90
75668;BME280;64266;48.798;44.756;2023-03-19T09:43:40;101860.63;;;17.41;37.80
75668;BME280;64266;48.798;44.756;2023-03-19T09:49:11;101844.91;;;17.56;37.77
75668;BME280;64266;48.798;44.756;2023-03-19T09:54:31;101825.28;;;17.67;37.97
75668;BME280;64266;48.798;44.756;2023-03-19T09:59:35;101804.63;;;17.68;37.46
75668;BME280;64266;48.798;44.756;2023-03-19T10:04:40;101823.09;;;17.93;37.26
75668;BME280;64266;48.798;44.756;2023-03-19T10:09:52;101815.88;;;18.10;36.82
75668;BME280;64266;48.798;44.756;2023-03-19T10:25:38;101772.09;;;18.54;35.95
75668;BME280;64266;48.798;44.756;2023-03-19T10:30:56;101774.09;;;18.80;35.75
75668;BME280;64266;48.798;44.756;2023-03-19T10:36:08;101758.13;;;18.90;35.08
75668;BME280;64266;48.798;44.756;2023-03-19T10:41:29;101753.13;;;18.99;34.08
75668;BME280;64266;48.798;44.756;2023-03-19T10:46:39;101751.25;;;19.00;34.06
75668;BME280;64266;48.798;44.756;2023-03-19T10:51:47;101727.88;;;19.00;33.93
75668;BME280;64266;48.798;44.756;2023-03-19T10:56:50;101733.59;;;19.25;34.04
75668;BME280;64266;48.798;44.756;2023-03-19T11:02:02;101732.97;;;19.40;32.60
75668;BME280;64266;48.798;44.756;2023-03-19T11:07:18;101724.50;;;19.53;33.01
75668;BME280;64266;48.798;44.756;2023-03-19T11:12:45;101718.78;;;19.71;31.64
75668;BME280;64266;48.798;44.756;2023-03-19T11:18:00;101684.22;;;19.63;30.44
75668;BME280;64266;48.798;44.756;2023-03-19T11:23:15;101688.47;;;19.81;30.02
75668;BME280;64266;48.798;44.756;2023-03-19T11:28:23;101697.22;;;19.98;30.00
75668;BME280;64266;48.798;44.756;2023-03-19T11:44:09;101649.41;;;20.15;28.38
75668;BME280;64266;48.798;44.756;2023-03-19T12:00:16;101668.44;;;20.35;28.09
75668;BME280;64266;48.798;44.756;2023-03-19T12:05:29;101668.72;;;20.39;27.84
75668;BME280;64266;48.798;44.756;2023-03-19T12:32:15;101640.91;;;20.33;27.37
75668;BME280;64266;48.798;44.756;2023-03-19T12:37:28;101628.78;;;20.26;26.92
75668;BME280;64266;48.798;44.756;2023-03-19T12:42:38;101638.16;;;20.23;26.93
75668;BME280;64266;48.798;44.756;2023-03-19T12:47:42;101620.03;;;20.09;26.64
75668;BME280;64266;48.798;44.756;2023-03-19T12:52:50;101631.81;;;20.02;26.51
75668;BME280;64266;48.798;44.756;2023-03-19T13:03:18;101640.13;;;19.96;26.46
75668;BME280;64266;48.798;44.756;2023-03-19T13:08:40;101619.53;;;19.80;26.18
75668;BME280;64266;48.798;44.756;2023-03-19T13:13:54;101616.66;;;19.91;26.48
75668;BME280;64266;48.798;44.756;2023-03-19T13:19:17;101624.13;;;19.84;26.34
75668;BME280;64266;48.798;44.756;2023-03-19T13:24:25;101624.13;;;19.84;26.68
75668;BME280;64266;48.798;44.756;2023-03-19T13:29:30;101605.75;;;19.71;27.14
75668;BME280;64266;48.798;44.756;2023-03-19T13:34:36;101617.59;;;19.75;27.21
75668;BME280;64266;48.798;44.756;2023-03-19T13:39:40;101601.09;;;19.62;27.70
75668;BME280;64266;48.798;44.756;2023-03-19T13:44:52;101586.72;;;19.51;27.32
75668;BME280;64266;48.798;44.756;2023-03-19T14:05:50;101608.94;;;19.41;29.06
75668;BME280;64266;48.798;44.756;2023-03-19T14:10:57;101572.31;;;19.09;29.45
75668;BME280;64266;48.798;44.756;2023-03-19T14:21:18;101613.69;;;19.08;29.43
75668;BME280;64266;48.798;44.756;2023-03-19T14:26:33;101616.22;;;18.92;29.66
75668;BME280;64266;48.798;44.756;2023-03-19T14:31:47;101622.53;;;18.81;30.37
75668;BME280;64266;48.798;44.756;2023-03-19T14:37:22;101631.78;;;18.69;30.63
75668;BME280;64266;48.798;44.756;2023-03-19T14:42:32;101611.19;;;18.36;31.25
75668;BME280;64266;48.798;44.756;2023-03-19T14:58:53;101634.22;;;18.15;31.79
75668;BME280;64266;48.798;44.756;2023-03-19T15:03:59;101648.94;;;18.13;31.74
75668;BME280;64266;48.798;44.756;2023-03-19T15:09:26;101599.44;;;17.70;32.09
75668;BME280;64266;48.798;44.756;2023-03-19T15:20:20;101650.34;;;17.65;33.33
75668;BME280;64266;48.798;44.756;2023-03-19T15:25:24;101665.06;;;17.51;33.22
75668;BME280;64266;48.798;44.756;2023-03-19T15:30:27;101651.28;;;17.31;34.37
75668;BME280;64266;48.798;44.756;2023-03-19T15:35:34;101637.78;;;16.98;34.67
75668;BME280;64266;48.798;44.756;2023-03-19T15:40:39;101669.13;;;16.97;35.79
75668;BME280;64266;48.798;44.756;2023-03-19T15:45:45;101661.38;;;16.72;35.97
75668;BME280;64266;48.798;44.756;2023-03-19T15:50:55;101653.69;;;16.41;36.72
75668;BME280;64266;48.798;44.756;2023-03-19T15:56:01;101669.66;;;16.36;36.79
75668;BME280;64266;48.798;44.756;2023-03-19T16:01:08;101653.91;;;16.05;37.21
75668;BME280;64266;48.798;44.756;2023-03-19T16:06:16;101665.06;;;15.90;37.43
75668;BME280;64266;48.798;44.756;2023-03-19T16:11:33;101682.81;;;15.85;38.23
75668;BME280;64266;48.798;44.756;2023-03-19T16:16:38;101661.03;;;15.58;38.46
75668;BME280;64266;48.798;44.756;2023-03-19T16:21:42;101689.31;;;15.65;39.45
75668;BME280;64266;48.798;44.756;2023-03-19T16:26:45;101678.03;;;15.45;39.22
75668;BME280;64266;48.798;44.756;2023-03-19T16:32:14;101684.59;;;15.31;39.86
75668;BME280;64266;48.798;44.756;2023-03-19T16:37:45;101688.63;;;15.22;39.79
75668;BME280;64266;48.798;44.756;2023-03-19T16:42:51;101679.22;;;15.01;40.40
75668;BME280;64266;48.798;44.756;2023-03-19T16:47:57;101665.41;;;14.86;40.30
75668;BME280;64266;48.798;44.756;2023-03-19T16:53:05;101682.06;;;14.88;40.47
75668;BME280;64266;48.798;44.756;2023-03-19T16:58:16;101681.50;;;14.80;40.41
75668;BME280;64266;48.798;44.756;2023-03-19T17:03:19;101690.50;;;14.85;40.42
75668;BME280;64266;48.798;44.756;2023-03-19T17:08:21;101614.72;;;14.25;41.39
75668;BME280;64266;48.798;44.756;2023-03-19T17:13:30;101671.31;;;14.52;41.63
75668;BME280;64266;48.798;44.756;2023-03-19T17:18:35;101685.78;;;14.44;42.04
75668;BME280;64266;48.798;44.756;2023-03-19T17:23:38;101698.75;;;14.41;42.26
75668;BME280;64266;48.798;44.756;2023-03-19T17:28:41;101676.69;;;14.27;42.48
75668;BME280;64266;48.798;44.756;2023-03-19T17:33:44;101678.59;;;14.20;42.55
75668;BME280;64266;48.798;44.756;2023-03-19T17:38:47;101690.13;;;14.14;43.09
75668;BME280;64266;48.798;44.756;2023-03-19T17:43:49;101708.97;;;14.19;42.95
75668;BME280;64266;48.798;44.756;2023-03-19T17:48:52;101706.28;;;14.19;42.76
75668;BME280;64266;48.798;44.756;2023-03-19T17:53:55;101702.06;;;14.11;42.36
75668;BME280;64266;48.798;44.756;2023-03-19T17:58:58;101713.72;;;14.17;42.23
75668;BME280;64266;48.798;44.756;2023-03-19T18:04:01;101702.31;;;14.03;42.24
75668;BME280;64266;48.798;44.756;2023-03-19T18:09:04;101706.13;;;13.89;42.78
75668;BME280;64266;48.798;44.756;2023-03-19T18:14:06;101719.72;;;14.06;40.79
75668;BME280;64266;48.798;44.756;2023-03-19T18:19:19;101736.56;;;14.38;40.23
75668;BME280;64266;48.798;44.756;2023-03-19T18:24:23;101742.00;;;14.49;39.47
75668;BME280;64266;48.798;44.756;2023-03-19T18:29:25;101719.16;;;14.53;38.56
75668;BME280;64266;48.798;44.756;2023-03-19T18:34:28;101742.84;;;14.68;37.79
75668;BME280;64266;48.798;44.756;2023-03-19T18:39:30;101719.31;;;14.58;37.93
75668;BME280;64266;48.798;44.756;2023-03-19T18:44:37;101716.56;;;14.47;37.96
75668;BME280;64266;48.798;44.756;2023-03-19T18:49:40;101744.47;;;14.51;37.56
75668;BME280;64266;48.798;44.756;2023-03-19T18:54:43;101750.03;;;14.43;37.05
75668;BME280;64266;48.798;44.756;2023-03-19T18:59:46;101744.78;;;14.36;37.38
75668;BME280;64266;48.798;44.756;2023-03-19T19:04:49;101750.56;;;14.33;37.75
75668;BME280;64266;48.798;44.756;2023-03-19T19:09:52;101734.66;;;14.13;37.78
75668;BME280;64266;48.798;44.756;2023-03-19T19:14:55;101741.31;;;14.04;38.15
75668;BME280;64266;48.798;44.756;2023-03-19T19:19:59;101762.84;;;14.03;38.18
75668;BME280;64266;48.798;44.756;2023-03-19T19:25:02;101756.13;;;13.94;38.03
75668;BME280;64266;48.798;44.756;2023-03-19T19:30:05;101774.19;;;13.92;37.85
75668;BME280;64266;48.798;44.756;2023-03-19T19:35:28;101759.75;;;13.75;38.74
75668;BME280;64266;48.798;44.756;2023-03-19T19:40:33;101773.88;;;13.75;37.94
75668;BME280;64266;48.798;44.756;2023-03-19T19:45:37;101775.78;;;13.68;38.20
75668;BME280;64266;48.798;44.756;2023-03-19T19:50:41;101754.38;;;13.43;38.13
75668;BME280;64266;48.798;44.756;2023-03-19T19:55:45;101787.16;;;13.44;38.69
75668;BME280;64266;48.798;44.756;2023-03-19T20:00:47;101792.50;;;13.37;39.23
75668;BME280;64266;48.798;44.756;2023-03-19T20:06:04;101783.72;;;13.30;37.63
75668;BME280;64266;48.798;44.756;2023-03-19T20:11:29;101779.84;;;13.20;38.67
75668;BME280;64266;48.798;44.756;2023-03-19T20:16:32;101786.81;;;13.14;38.78
75668;BME280;64266;48.798;44.756;2023-03-19T20:21:34;101802.78;;;13.07;38.01
75668;BME280;64266;48.798;44.756;2023-03-19T20:26:37;101806.09;;;13.03;37.76
75668;BME280;64266;48.798;44.756;2023-03-19T20:31:39;101797.09;;;12.97;37.78
75668;BME280;64266;48.798;44.756;2023-03-19T20:36:44;101777.22;;;12.80;37.38
75668;BME280;64266;48.798;44.756;2023-03-19T20:41:47;101804.84;;;12.86;36.85
75668;BME280;64266;48.798;44.756;2023-03-19T20:46:50;101803.84;;;12.87;36.23
75668;BME280;64266;48.798;44.756;2023-03-19T20:51:54;101794.66;;;12.70;36.51
75668;BME280;64266;48.798;44.756;2023-03-19T20:56:57;101809.38;;;12.72;37.28
75668;BME280;64266;48.798;44.756;2023-03-19T21:02:20;101801.81;;;12.56;37.36
75668;BME280;64266;48.798;44.756;2023-03-19T21:08:16;101763.13;;;12.27;36.82
75668;BME280;64266;48.798;44.756;2023-03-19T21:13:20;101802.22;;;12.53;36.51
75668;BME280;64266;48.798;44.756;2023-03-19T21:18:24;101813.50;;;12.48;36.34
75668;BME280;64266;48.798;44.756;2023-03-19T21:23:30;101827.19;;;12.52;36.40
75668;BME280;64266;48.798;44.756;2023-03-19T21:28:37;101832.69;;;12.37;36.03
75668;BME280;64266;48.798;44.756;2023-03-19T21:33:42;101828.00;;;12.46;35.37
75668;BME280;64266;48.798;44.756;2023-03-19T21:38:45;101831.88;;;12.37;34.61
75668;BME280;64266;48.798;44.756;2023-03-19T21:44:00;101822.66;;;12.26;34.45
75668;BME280;64266;48.798;44.756;2023-03-19T21:49:05;101807.50;;;12.14;34.67
75668;BME280;64266;48.798;44.756;2023-03-19T21:54:09;101816.09;;;12.16;33.96
75668;BME280;64266;48.798;44.756;2023-03-19T21:59:18;101841.03;;;12.21;33.91
75668;BME280;64266;48.798;44.756;2023-03-19T22:04:24;101840.25;;;12.21;34.25
75668;BME280;64266;48.798;44.756;2023-03-19T22:09:26;101827.31;;;12.05;34.01
75668;BME280;64266;48.798;44.756;2023-03-19T22:14:29;101805.38;;;11.83;33.95
75668;BME280;64266;48.798;44.756;2023-03-19T22:19:32;101813.75;;;11.80;34.57
75668;BME280;64266;48.798;44.756;2023-03-19T22:24:35;101801.00;;;11.69;35.05
75668;BME280;64266;48.798;44.756;2023-03-19T22:29:42;101813.84;;;11.59;35.53
75668;BME280;64266;48.798;44.756;2023-03-19T22:34:58;101788.59;;;11.35;35.11
75668;BME280;64266;48.798;44.756;2023-03-19T22:40:11;101802.56;;;11.50;35.65
75668;BME280;64266;48.798;44.756;2023-03-19T22:51:41;101809.25;;;11.39;36.67
75668;BME280;64266;48.798;44.756;2023-03-19T22:56:46;101777.88;;;11.15;36.93
75668;BME280;64266;48.798;44.756;2023-03-19T23:01:48;101801.84;;;11.28;37.76
75668;BME280;64266;48.798;44.756;2023-03-19T23:06:52;101795.44;;;11.16;37.87
75668;BME280;64266;48.798;44.756;2023-03-19T23:11:55;101811.72;;;11.07;37.74
75668;BME280;64266;48.798;44.756;2023-03-19T23:17:01;101747.72;;;10.61;37.16
75668;BME280;64266;48.798;44.756;2023-03-19T23:22:06;101801.56;;;10.89;37.82
75668;BME280;64266;48.798;44.756;2023-03-19T23:27:20;101801.72;;;10.81;37.90
75668;BME280;64266;48.798;44.756;2023-03-19T23:32:23;101801.84;;;10.66;38.55
75668;BME280;64266;48.798;44.756;2023-03-19T23:37:26;101791.31;;;10.52;38.46
75668;BME280;64266;48.798;44.756;2023-03-19T23:42:30;101802.97;;;10.57;38.30
75668;BME280;64266;48.798;44.756;2023-03-19T23:47:33;101812.47;;;10.45;38.99
75668;BME280;64266;48.798;44.756;2023-03-19T23:52:36;101785.38;;;10.28;38.14
75668;BME280;64266;48.798;44.756;2023-03-19T23:57:38;101791.97;;;10.32;39.02
